Time;durP1;ratioP1;P1;durP2;ratioP2;P2;SDS_P1;SDS_P2;PMS_P1;PMS_P2;Temp;Humidity;BMP_temperature;BMP_pressure;BME280_temperature;BME280_humidity;BME280_pressure;Samples;Min_cycle;Max_cycle;Signal;HPM_P1;HPM_P2
2023/10/12 00:02:21;;;;;;;;;;;;;;;24.26;40.79;100165.69;6116985;23;6786;-73
2023/10/12 00:07:16;;;;;;;;;;;;;;;24.24;40.70;100150.00;6117716;23;6846;-74
2023/10/12 00:09:48;;;;;;;;;;;;;;;24.21;41.05;100175.34;6118980;23;6938;-74
2023/10/12 00:12:23;;;;;;;;;;;;;;;24.17;40.76;100169.28;6117886;23;6783;-74
2023/10/12 00:14:56;;;;;;;;;;;;;;;24.14;41.07;100161.44;6117247;23;6794;-73
2023/10/12 00:17:23;;;;;;;;;;;;;;;24.10;41.01;100173.72;6093365;23;6997;-74
2023/10/12 00:19:52;;;;;;;;;;;;;;;24.08;40.96;100183.34;6091636;23;7262;-73
2023/10/12 00:22:19;;;;;;;;;;;;;;;24.08;40.79;100190.34;6115819;23;7009;-73
2023/10/12 00:24:45;;;;;;;;;;;;;;;24.07;41.00;100191.22;6120413;23;6929;-72
2023/10/12 00:27:13;;;;;;;;;;;;;;;24.06;40.54;100177.25;6117792;23;6771;-73
2023/10/12 00:29:39;;;;;;;;;;;;;;;23.96;41.13;100168.63;6118155;23;6839;-73
2023/10/12 00:32:09;;;;;;;;;;;;;;;23.83;41.49;100173.13;6141391;23;7972;-76
2023/10/12 00:34:46;;;;;;;;;;;;;;;23.71;41.24;100181.97;6093083;23;7036;-74
2023/10/12 00:37:13;;;;;;;;;;;;;;;23.64;41.85;100182.88;6119688;23;7026;-75
2023/10/12 00:39:57;;;;;;;;;;;;;;;23.62;41.46;100189.88;6116406;23;6779;-75
2023/10/12 00:42:29;;;;;;;;;;;;;;;23.60;41.80;100183.81;6118797;23;7186;-75
2023/10/12 00:44:55;;;;;;;;;;;;;;;23.59;41.57;100182.09;6092670;23;6955;-76
2023/10/12 00:50:11;;;;;;;;;;;;;;;23.54;42.25;100191.69;6117103;23;6774;-75
2023/10/12 00:52:56;;;;;;;;;;;;;;;23.53;42.13;100184.75;6116725;23;6958;-76
2023/10/12 00:55:36;;;;;;;;;;;;;;;23.50;42.24;100187.41;6115341;23;6783;-76
2023/10/12 00:58:08;;;;;;;;;;;;;;;23.49;42.39;100191.75;6095416;23;8286;-76
2023/10/12 01:00:35;;;;;;;;;;;;;;;23.49;42.29;100190.91;6116771;23;7383;-76
2023/10/12 01:03:30;;;;;;;;;;;;;;;23.49;42.03;100190.91;6092877;23;7270;-76
2023/10/12 01:06:20;;;;;;;;;;;;;;;23.44;41.57;100180.47;6116958;23;6782;-76
2023/10/12 01:08:47;;;;;;;;;;;;;;;23.33;41.98;100185.78;6096438;23;7013;-76
2023/10/12 01:16:42;;;;;;;;;;;;;;;22.69;43.92;100208.81;6113829;23;6929;-77
2023/10/12 01:19:08;;;;;;;;;;;;;;;22.56;44.25;100211.50;6141084;23;7129;-78
2023/10/12 01:21:37;;;;;;;;;;;;;;;;;;6117885;23;6959;-76
2023/10/12 01:24:11;;;;;;;;;;;;;;;22.39;44.27;100208.94;6115419;23;6817;-76
2023/10/12 01:26:48;;;;;;;;;;;;;;;22.34;44.13;100211.56;6118166;23;6790;-76
2023/10/12 01:29:21;;;;;;;;;;;;;;;22.30;44.52;100220.25;6093606;23;7204;-76
2023/10/12 01:32:41;;;;;;;;;;;;;;;22.27;44.80;100256.81;6115320;23;6783;-75
2023/10/12 01:34:51;;;;;;;;;;;;;;;22.24;45.18;100250.75;6110205;23;6771;-76
2023/10/12 01:37:23;;;;;;;;;;;;;;;22.15;45.48;100246.44;6117268;23;7304;-76
2023/10/12 01:39:57;;;;;;;;;;;;;;;22.06;45.47;100236.84;6093719;23;7136;-76
2023/10/12 01:42:34;;;;;;;;;;;;;;;22.00;45.55;100247.31;6116256;23;7008;-73
2023/10/12 01:45:03;;;;;;;;;;;;;;;21.92;46.29;100242.97;6115630;23;6783;-74
2023/10/12 01:47:29;;;;;;;;;;;;;;;21.83;46.21;100257.78;6115834;23;6790;-73
2023/10/12 01:49:56;;;;;;;;;;;;;;;21.74;46.95;100269.97;6090988;23;6956;-73
2023/10/12 01:52:22;;;;;;;;;;;;;;;21.72;46.94;100276.03;6116752;23;6968;-73
2023/10/12 01:54:49;;;;;;;;;;;;;;;21.69;47.48;100279.50;6092282;23;6950;-74
2023/10/12 01:57:26;;;;;;;;;;;;;;;21.68;47.24;100283.00;6116854;23;6971;-73
2023/10/12 01:59:54;;;;;;;;;;;;;;;21.67;47.48;100275.13;6092224;23;7025;-73
2023/10/12 02:02:21;;;;;;;;;;;;;;;21.61;47.96;100289.91;6116076;23;7164;-73
2023/10/12 02:04:47;;;;;;;;;;;;;;;21.53;48.12;100298.59;6116129;23;6867;-73
2023/10/12 02:07:13;;;;;;;;;;;;;;;21.41;48.51;100304.69;6117234;23;6942;-74
2023/10/12 02:09:39;;;;;;;;;;;;;;;21.33;48.76;100313.34;6115938;23;6779;-73
2023/10/12 02:12:12;;;;;;;;;;;;;;;21.26;49.31;100300.31;6116023;23;6973;-74
2023/10/12 02:14:40;;;;;;;;;;;;;;;21.20;49.42;100299.41;6118892;23;7013;-73
2023/10/12 02:17:09;;;;;;;;;;;;;;;21.16;49.64;100302.88;6114611;23;7044;-73
2023/10/12 02:19:42;;;;;;;;;;;;;;;21.11;49.78;100304.59;6115137;23;6875;-73
2023/10/12 02:22:18;;;;;;;;;;;;;;;21.10;50.18;100315.88;6089696;23;6968;-73
2023/10/12 02:25:00;;;;;;;;;;;;;;;21.07;50.18;100302.84;6117458;23;6783;-73
2023/10/12 02:27:26;;;;;;;;;;;;;;;21.07;50.38;100305.47;6092400;23;6959;-73
2023/10/12 02:29:53;;;;;;;;;;;;;;;21.07;50.58;100311.53;6119359;23;7114;-73
2023/10/12 02:32:23;;;;;;;;;;;;;;;21.08;50.80;100304.59;6114824;23;7326;-73
2023/10/12 02:34:55;;;;;;;;;;;;;;;21.07;50.75;100313.28;6118446;23;6993;-74
2023/10/12 02:37:24;;;;;;;;;;;;;;;21.03;50.95;100296.75;6095488;23;7108;-73
2023/10/12 02:39:53;;;;;;;;;;;;;;;21.02;51.19;100301.97;6117768;23;6787;-73
2023/10/12 02:42:38;;;;;;;;;;;;;;;21.01;51.15;100301.09;6117429;23;6779;-73
2023/10/12 02:47:41;;;;;;;;;;;;;;;21.02;51.55;100284.59;6125989;23;6759;-73
2023/10/12 02:52:43;;;;;;;;;;;;;;;21.04;52.02;100261.16;6117866;23;6827;-76
2023/10/12 02:57:56;;;;;;;;;;;;;;;21.04;51.99;100284.59;6129061;23;7718;-75
2023/10/12 03:00:44;;;;;;;;;;;;;;;21.02;52.00;100309.78;6117063;23;6771;-77
2023/10/12 03:05:51;;;;;;;;;;;;;;;20.91;52.45;100328.00;6126125;23;6771;-76
2023/10/12 03:08:20;;;;;;;;;;;;;;;20.88;52.40;100305.41;6117561;23;7283;-76
2023/10/12 03:13:35;;;;;;;;;;;;;;;20.80;52.78;100288.84;6128476;23;6759;-75
2023/10/12 03:16:15;;;;;;;;;;;;;;;20.75;52.77;100286.22;6094850;23;6986;-77
2023/10/12 03:18:42;;;;;;;;;;;;;;;20.68;53.76;100267.09;6139915;23;6790;-77
2023/10/12 03:21:11;;;;;;;;;;;;;;;20.61;53.40;100257.50;6091261;23;7864;-77
2023/10/12 03:23:43;;;;;;;;;;;;;;;20.54;54.11;100245.31;6090078;23;6986;-77
2023/10/12 03:26:24;;;;;;;;;;;;;;;20.48;54.25;100246.16;6115199;23;6774;-76
2023/10/12 03:29:09;;;;;;;;;;;;;;;20.40;54.31;100240.03;6116321;23;6782;-76
2023/10/12 03:31:52;;;;;;;;;;;;;;;20.36;54.36;100243.50;6118149;23;6941;-76
2023/10/12 03:34:53;;;;;;;;;;;;;;;20.32;54.71;100239.13;6114970;23;6775;-76
2023/10/12 03:37:40;;;;;;;;;;;;;;;20.29;54.86;100242.63;6118084;23;6786;-77
2023/10/12 03:40:49;;;;;;;;;;;;;;;20.31;55.15;100234.78;6116352;23;7007;-77
2023/10/12 03:42:55;;;;;;;;;;;;;;;20.32;55.55;100208.78;6117570;23;7047;-76
2023/10/12 03:45:39;;;;;;;;;;;;;;;20.33;55.91;100220.06;6116997;23;6816;-75
2023/10/12 03:53:36;;;;;;;;;;;;;;;20.31;56.25;100199.25;6119554;23;7140;-76
2023/10/12 03:56:07;;;;;;;;;;;;;;;20.30;56.31;100207.91;6140920;23;6952;-74
2023/10/12 03:58:39;;;;;;;;;;;;;;;20.31;56.41;100209.66;6118892;23;6779;-74
2023/10/12 04:01:12;;;;;;;;;;;;;;;20.30;56.80;100207.03;6093248;23;7060;-74
2023/10/12 04:03:40;;;;;;;;;;;;;;;20.30;56.48;100218.31;6095397;23;6779;-71
2023/10/12 04:06:15;;;;;;;;;;;;;;;20.30;56.82;100213.13;6116237;23;6945;-72
2023/10/12 04:08:53;;;;;;;;;;;;;;;20.32;56.52;100236.53;6117291;23;7640;-72
2023/10/12 04:16:57;;;;;;;;;;;;;;;20.32;56.34;100268.66;6119750;23;6783;-72
2023/10/12 04:19:33;;;;;;;;;;;;;;;20.26;56.41;100273.81;6121048;23;6783;-71
2023/10/12 04:22:12;;;;;;;;;;;;;;;20.19;56.66;100285.06;6119163;23;7104;-72
2023/10/12 04:24:43;;;;;;;;;;;;;;;20.09;56.81;100282.41;6118511;23;7276;-73
2023/10/12 04:29:56;;;;;;;;;;;;;;;19.96;56.82;100306.56;6119304;23;6779;-72
2023/10/12 04:33:11;;;;;;;;;;;;;;;19.91;56.97;100310.84;6120195;23;6787;-71
2023/10/12 04:35:21;;;;;;;;;;;;;;;19.89;57.22;100302.13;6118395;23;6775;-71
2023/10/12 04:37:47;;;;;;;;;;;;;;;19.85;57.58;100296.06;6096906;23;7001;-71
2023/10/12 04:43:00;;;;;;;;;;;;;;;19.82;57.64;100277.81;6118662;23;6865;-73
2023/10/12 04:45:30;;;;;;;;;;;;;;;19.82;57.50;100277.81;6120022;23;6775;-72
2023/10/12 04:47:57;;;;;;;;;;;;;;;19.80;57.46;100267.41;6118049;23;6779;-72
2023/10/12 04:53:06;;;;;;;;;;;;;;;19.77;57.44;100259.56;6141725;23;6791;-73
2023/10/12 04:55:34;;;;;;;;;;;;;;;19.77;57.63;100258.72;6150044;23;6771;-72
2023/10/12 04:58:30;;;;;;;;;;;;;;;19.75;57.54;100253.50;6149391;23;6779;-72
2023/10/12 05:01:12;;;;;;;;;;;;;;;19.74;57.84;100256.94;6147414;23;6940;-72
2023/10/12 05:03:41;;;;;;;;;;;;;;;19.78;57.94;100276.06;6148231;23;6774;-71
2023/10/12 05:06:15;;;;;;;;;;;;;;;19.78;57.52;100276.06;6147496;23;7359;-73
2023/10/12 05:08:41;;;;;;;;;;;;;;;19.77;57.43;100279.50;6148639;23;6775;-72
2023/10/12 05:11:08;;;;;;;;;;;;;;;19.75;58.36;100284.69;6148188;23;6842;-72
2023/10/12 05:13:34;;;;;;;;;;;;;;;19.73;58.24;100291.63;6147102;23;7256;-74
2023/10/12 05:16:07;;;;;;;;;;;;;;;19.69;57.78;100279.44;6148280;23;7128;-76
2023/10/12 05:18:34;;;;;;;;;;;;;;;19.68;58.14;100275.09;6150091;23;6778;-76
2023/10/12 05:21:00;;;;;;;;;;;;;;;19.65;57.93;100275.97;6149616;23;6909;-76
2023/10/12 05:23:26;;;;;;;;;;;;;;;19.64;58.51;100283.72;6148168;23;6767;-76
2023/10/12 05:28:31;;;;;;;;;;;;;;;19.61;58.53;100283.72;6148892;23;6958;-76
2023/10/12 05:36:14;;;;;;;;;;;;;;;19.55;58.50;100287.09;6142963;23;6763;-78
2023/10/12 05:38:49;;;;;;;;;;;;;;;19.53;58.61;100292.31;6145881;23;7030;-75
2023/10/12 05:44:15;;;;;;;;;;;;;;;19.51;58.62;100300.94;6113375;23;6771;-75
2023/10/12 05:46:45;;;;;;;;;;;;;;;19.49;58.61;100306.09;6146984;23;7065;-74
2023/10/12 05:49:14;;;;;;;;;;;;;;;19.49;58.85;100300.91;6147030;23;6775;-75
2023/10/12 05:51:46;;;;;;;;;;;;;;;19.48;58.84;100296.56;6146987;23;6997;-75
2023/10/12 05:54:15;;;;;;;;;;;;;;;19.47;58.91;100299.19;6122069;23;6808;-76
2023/10/12 05:56:43;;;;;;;;;;;;;;;19.49;58.81;100303.50;6121848;23;6977;-74
2023/10/12 05:59:12;;;;;;;;;;;;;;;19.50;58.70;100301.78;6145799;23;6787;-76
2023/10/12 06:01:45;;;;;;;;;;;;;;;19.55;59.05;100305.28;6146404;23;6791;-74
2023/10/12 06:04:15;;;;;;;;;;;;;;;19.61;58.77;100307.09;6145665;23;6834;-76
2023/10/12 06:06:42;;;;;;;;;;;;;;;19.63;58.64;100308.00;6122042;23;6987;-76
2023/10/12 06:09:13;;;;;;;;;;;;;;;19.66;58.77;100313.22;6121217;23;6956;-75
2023/10/12 06:11:45;;;;;;;;;;;;;;;19.66;58.59;100321.88;6147066;23;6783;-75
2023/10/12 06:14:14;;;;;;;;;;;;;;;19.65;58.82;100325.34;6121132;23;6964;-77
2023/10/12 06:16:41;;;;;;;;;;;;;;;19.64;58.38;100318.38;6122795;23;7073;-75
2023/10/12 06:19:21;;;;;;;;;;;;;;;19.68;58.51;100319.28;6147971;23;6970;-76
2023/10/12 06:21:50;;;;;;;;;;;;;;;19.70;58.59;100325.38;6146396;23;6972;-75
2023/10/12 06:24:21;;;;;;;;;;;;;;;19.73;58.22;100333.22;6121381;23;7331;-76
2023/10/12 06:26:48;;;;;;;;;;;;;;;19.76;58.40;100335.84;6148431;23;6977;-75
2023/10/12 06:29:24;;;;;;;;;;;;;;;19.80;58.56;100332.41;6148330;23;6778;-76
2023/10/12 06:31:54;;;;;;;;;;;;;;;19.83;58.56;100337.63;6146930;23;7007;-77
2023/10/12 06:34:23;;;;;;;;;;;;;;;19.90;58.26;100342.91;6117399;23;6981;-75
2023/10/12 06:36:58;;;;;;;;;;;;;;;19.92;58.61;100336.84;6117824;23;6775;-76
2023/10/12 06:44:27;;;;;;;;;;;;;;;20.02;58.30;100343.03;6116945;23;6751;-76
2023/10/12 06:47:28;;;;;;;;;;;;;;;20.04;58.23;100336.09;6094007;23;7316;-75
2023/10/12 06:49:51;;;;;;;;;;;;;;;20.10;57.97;100346.56;6117617;23;6795;-75
2023/10/12 06:52:19;;;;;;;;;;;;;;;20.14;57.92;100347.47;6092254;23;7182;-76
2023/10/12 06:54:54;;;;;;;;;;;;;;;20.19;58.05;100352.69;6092687;23;6965;-74
2023/10/12 07:02:29;;;;;;;;;;;;;;;20.30;58.35;100369.25;6117345;23;6903;-76
2023/10/12 07:05:03;;;;;;;;;;;;;;;20.35;58.03;100372.75;6093342;23;6960;-75
2023/10/12 07:07:41;;;;;;;;;;;;;;;20.38;57.96;100377.13;6117286;23;6775;-77
2023/10/12 07:12:48;;;;;;;;;;;;;;;20.43;57.81;100370.22;6117387;23;6931;-76
2023/10/12 07:15:23;;;;;;;;;;;;;;;20.46;57.68;100375.44;6117388;23;6778;-75
2023/10/12 07:17:50;;;;;;;;;;;;;;;20.49;57.61;100369.41;6117821;23;7027;-75
2023/10/12 07:20:30;;;;;;;;;;;;;;;20.51;57.33;100362.47;6118305;23;6774;-74
2023/10/12 07:22:56;;;;;;;;;;;;;;;20.53;57.46;100364.22;6119008;23;7424;-76
2023/10/12 07:25:26;;;;;;;;;;;;;;;20.55;57.63;100372.00;6118657;23;6767;-76
2023/10/12 07:27:59;;;;;;;;;;;;;;;20.57;57.55;100377.25;6119822;23;7358;-75
2023/10/12 07:30:33;;;;;;;;;;;;;;;20.58;57.50;100374.66;6119284;23;7224;-76
2023/10/12 07:33:05;;;;;;;;;;;;;;;20.60;57.48;100375.53;6095325;23;7256;-76
2023/10/12 07:35:32;;;;;;;;;;;;;;;20.64;57.54;100390.28;6124843;23;6986;-79
2023/10/12 07:37:58;;;;;;;;;;;;;;;20.67;57.31;100392.94;6151404;23;7092;-77
2023/10/12 07:40:24;;;;;;;;;;;;;;;20.72;57.45;100386.88;6101503;23;6961;-78
2023/10/12 07:42:50;;;;;;;;;;;;;;;20.76;57.26;100381.69;6102373;23;6986;-78
2023/10/12 07:45:18;;;;;;;;;;;;;;;20.79;57.16;100380.84;6100965;23;6934;-78
2023/10/12 07:47:46;;;;;;;;;;;;;;;20.82;56.96;100388.69;6126012;23;7051;-76
2023/10/12 07:50:25;;;;;;;;;;;;;;;20.85;56.82;100393.06;6125742;23;7027;-78
2023/10/12 07:55:41;;;;;;;;;;;;;;;20.85;56.82;100393.06;6122377;23;6797;-75
2023/10/12 07:58:13;;;;;;;;;;;;;;;20.85;56.84;100409.53;6100455;23;6961;-78
2023/10/12 08:00:41;;;;;;;;;;;;;;;20.86;56.81;100387.00;6101690;23;6840;-79
2023/10/12 08:13:05;;;;;;;;;;;;;;;20.92;56.88;100395.69;6134472;23;6763;-77
2023/10/12 08:15:49;;;;;;;;;;;;;;;20.97;57.27;100389.66;6124575;23;7186;-79
2023/10/12 08:21:01;;;;;;;;;;;;;;;21.05;57.02;100393.16;6124032;23;6775;-79
2023/10/12 08:23:27;;;;;;;;;;;;;;;21.08;56.95;100398.41;6125127;23;6914;-75
2023/10/12 08:26:03;;;;;;;;;;;;;;;21.14;56.67;100389.72;6123412;23;7035;-79
2023/10/12 08:28:37;;;;;;;;;;;;;;;21.18;56.45;100394.97;6123763;23;6779;-76
2023/10/12 08:31:14;;;;;;;;;;;;;;;21.22;56.57;100399.31;6125578;23;6770;-76
2023/10/12 08:33:49;;;;;;;;;;;;;;;21.28;56.71;100403.66;6126852;23;6779;-79
2023/10/12 08:38:52;;;;;;;;;;;;;;;21.33;56.70;100396.75;6125123;23;6755;-76
2023/10/12 08:43:59;;;;;;;;;;;;;;;21.43;56.33;100386.34;6134352;23;6755;-76
2023/10/12 08:46:50;;;;;;;;;;;;;;;21.46;56.65;100387.25;6094811;23;7004;-76
2023/10/12 08:49:35;;;;;;;;;;;;;;;21.50;56.50;100385.50;6117951;23;7230;-75
2023/10/12 08:52:15;;;;;;;;;;;;;;;21.55;56.18;100385.53;6118357;23;6938;-77
2023/10/12 08:54:43;;;;;;;;;;;;;;;21.60;56.43;100386.38;6095233;23;6974;-75
2023/10/12 08:57:35;;;;;;;;;;;;;;;21.69;56.35;100382.97;6119270;23;6775;-77
2023/10/12 09:03:00;;;;;;;;;;;;;;;21.88;56.27;100379.53;6140621;23;11587;-78
2023/10/12 09:05:33;;;;;;;;;;;;;;;21.98;56.10;100369.09;6118722;23;6886;-78
2023/10/12 09:13:35;;;;;;;;;;;;;;;22.30;55.86;100371.66;6120166;23;6755;-78
2023/10/12 09:16:11;;;;;;;;;;;;;;;22.42;55.26;100378.63;6143370;23;7128;-78
2023/10/12 09:18:46;;;;;;;;;;;;;;;22.53;55.21;100378.66;6094655;23;7053;-78
2023/10/12 09:21:23;;;;;;;;;;;;;;;22.66;55.05;100387.34;6119393;23;6778;-77
2023/10/12 09:26:46;;;;;;;;;;;;;;;22.91;54.31;100391.63;6118917;23;7019;-77
2023/10/12 09:29:20;;;;;;;;;;;;;;;23.00;54.14;100389.81;6096528;23;7047;-78
2023/10/12 09:35:03;;;;;;;;;;;;;;;23.17;53.69;100373.22;6125687;23;6827;-79
2023/10/12 09:37:33;;;;;;;;;;;;;;;23.23;53.36;100381.03;6121157;23;7236;-79
2023/10/12 09:39:59;;;;;;;;;;;;;;;23.27;53.56;100371.41;6146746;23;7938;-77
2023/10/12 09:42:30;;;;;;;;;;;;;;;23.34;53.59;100375.78;6146465;23;7085;-78
2023/10/12 09:45:10;;;;;;;;;;;;;;;23.48;53.55;100377.47;6146830;23;6778;-80
2023/10/12 09:47:50;;;;;;;;;;;;;;;23.62;53.27;100382.59;6147055;23;6790;-80
2023/10/12 09:50:27;;;;;;;;;;;;;;;23.74;52.88;100377.28;6124116;23;7236;-79
2023/10/12 09:52:57;;;;;;;;;;;;;;;23.83;52.63;100377.22;6146792;23;6913;-78
2023/10/12 09:55:36;;;;;;;;;;;;;;;23.93;52.06;100385.84;6122665;23;7004;-74
2023/10/12 09:58:13;;;;;;;;;;;;;;;24.06;52.32;100384.03;6146203;23;7033;-74
2023/10/12 10:00:55;;;;;;;;;;;;;;;24.21;52.01;100377.81;6146155;23;7023;-74
2023/10/12 10:03:25;;;;;;;;;;;;;;;24.30;51.68;100376.00;6125253;23;7433;-74
2023/10/12 10:06:01;;;;;;;;;;;;;;;24.36;51.43;100370.72;6146916;23;6783;-74
2023/10/12 10:08:29;;;;;;;;;;;;;;;24.40;51.27;100375.03;6146146;23;7663;-73
2023/10/12 10:10:57;;;;;;;;;;;;;;;24.46;51.38;100388.06;6146700;23;6783;-74
2023/10/12 10:13:58;;;;;;;;;;;;;;;24.58;50.98;100384.47;6147544;23;6813;-76
2023/10/12 10:16:26;;;;;;;;;;;;;;;24.67;50.95;100383.47;6086617;23;6857;-73
2023/10/12 10:21:38;;;;;;;;;;;;;;;24.82;50.68;100385.97;6146964;23;6774;-74
2023/10/12 10:24:19;;;;;;;;;;;;;;;24.91;50.38;100390.22;6146369;23;6834;-74
2023/10/12 10:26:47;;;;;;;;;;;;;;;25.02;49.89;100381.38;6148820;23;6770;-73
2023/10/12 10:29:20;;;;;;;;;;;;;;;25.06;49.42;100376.06;6147328;23;6964;-74
2023/10/12 10:31:51;;;;;;;;;;;;;;;25.07;49.27;100374.31;6147809;23;7252;-73
2023/10/12 10:34:25;;;;;;;;;;;;;;;25.04;48.90;100372.59;6146804;23;6787;-75
2023/10/12 10:36:53;;;;;;;;;;;;;;;24.94;48.80;100378.84;6149948;23;7141;-74
2023/10/12 10:41:54;;;;;;;;;;;;;;;24.73;49.24;100366.81;6153361;23;6823;-75
2023/10/12 10:44:22;;;;;;;;;;;;;;;24.70;49.34;100375.56;6153183;23;6931;-73
2023/10/12 10:46:54;;;;;;;;;;;;;;;24.67;49.53;100376.50;6152630;23;7019;-74
2023/10/12 10:49:21;;;;;;;;;;;;;;;24.67;49.22;100375.63;6153850;23;6783;-75
2023/10/12 10:54:39;;;;;;;;;;;;;;;24.71;49.08;100371.22;6166782;23;6767;-73
2023/10/12 10:57:17;;;;;;;;;;;;;;;24.76;49.60;100377.25;6129964;23;6971;-72
2023/10/12 10:59:45;;;;;;;;;;;;;;;24.87;49.47;100369.31;6130558;23;7017;-75
2023/10/12 11:02:12;;;;;;;;;;;;;;;24.94;48.90;100358.72;6128188;23;6971;-73
2023/10/12 11:04:45;;;;;;;;;;;;;;;24.99;49.00;100361.28;6151792;23;6987;-73
2023/10/12 11:07:13;;;;;;;;;;;;;;;25.05;48.95;100361.22;6154103;23;6850;-73
2023/10/12 11:12:31;;;;;;;;;;;;;;;25.15;48.42;100348.84;6164706;23;6827;-75
2023/10/12 11:15:00;;;;;;;;;;;;;;;25.17;48.67;100343.59;6154817;23;6779;-73
2023/10/12 11:17:41;;;;;;;;;;;;;;;25.13;48.02;100336.66;6129108;23;7252;-72
2023/10/12 11:20:57;;;;;;;;;;;;;;;25.14;48.25;100333.16;6153275;23;6779;-73
2023/10/12 11:23:20;;;;;;;;;;;;;;;25.18;47.97;100333.09;6157968;23;7191;-71
2023/10/12 11:25:46;;;;;;;;;;;;;;;25.26;48.02;100325.13;6128567;23;6940;-71
2023/10/12 11:28:22;;;;;;;;;;;;;;;25.34;47.40;100330.22;6127783;23;6955;-72
2023/10/12 11:30:51;;;;;;;;;;;;;;;25.38;47.21;100330.16;6128259;23;7153;-72
2023/10/12 11:33:26;;;;;;;;;;;;;;;25.46;47.46;100329.19;6152782;23;6774;-71
2023/10/12 11:35:54;;;;;;;;;;;;;;;25.51;47.04;100314.31;6153464;23;6782;-71
2023/10/12 11:38:23;;;;;;;;;;;;;;;25.49;46.35;100311.66;6179704;23;6774;-71
2023/10/12 11:40:55;;;;;;;;;;;;;;;25.41;46.25;100304.81;6153184;23;6778;-72
2023/10/12 11:43:28;;;;;;;;;;;;;;;25.28;46.59;100302.34;6153347;23;6779;-72
2023/10/12 11:46:01;;;;;;;;;;;;;;;25.14;46.50;100301.69;6154441;23;6944;-71
2023/10/12 11:48:28;;;;;;;;;;;;;;;25.04;46.78;100298.31;6128994;23;7048;-71
2023/10/12 11:50:55;;;;;;;;;;;;;;;24.96;46.75;100303.69;6152774;23;6778;-72
2023/10/12 11:53:24;;;;;;;;;;;;;;;24.88;47.12;100319.50;6152524;23;6774;-73
2023/10/12 11:56:03;;;;;;;;;;;;;;;24.79;47.26;100311.75;6153229;23;6778;-72
2023/10/12 11:58:30;;;;;;;;;;;;;;;24.68;47.55;100306.59;6129344;23;7228;-72
2023/10/12 12:01:00;;;;;;;;;;;;;;;24.57;47.76;100305.88;6178302;23;7188;-71
2023/10/12 12:03:26;;;;;;;;;;;;;;;24.42;48.05;100320.88;6152290;23;7449;-71
2023/10/12 12:05:52;;;;;;;;;;;;;;;24.34;47.71;100315.72;6127945;23;7011;-71
2023/10/12 12:08:18;;;;;;;;;;;;;;;24.28;48.03;100315.75;6152462;23;6771;-72
2023/10/12 12:13:20;;;;;;;;;;;;;;;24.12;47.81;100300.22;6154039;23;6831;-70
2023/10/12 12:15:49;;;;;;;;;;;;;;;24.05;48.32;100301.16;6153528;23;6933;-73
2023/10/12 12:18:19;;;;;;;;;;;;;;;23.98;48.56;100310.81;6152667;23;6775;-73
2023/10/12 12:20:50;;;;;;;;;;;;;;;23.98;49.22;100315.16;6153134;23;7846;-72
2023/10/12 12:23:18;;;;;;;;;;;;;;;24.00;49.03;100316.03;6153557;23;7082;-72
2023/10/12 12:25:44;;;;;;;;;;;;;;;24.02;49.03;100314.25;6126128;23;6952;-73
2023/10/12 12:28:21;;;;;;;;;;;;;;;24.06;49.45;100320.38;6152662;23;6771;-72
2023/10/12 12:30:55;;;;;;;;;;;;;;;24.12;49.25;100317.69;6151174;23;7240;-72
2023/10/12 12:33:22;;;;;;;;;;;;;;;24.19;49.83;100319.34;6129256;23;6974;-72
2023/10/12 12:35:59;;;;;;;;;;;;;;;24.31;49.92;100325.34;6127991;23;7088;-72
2023/10/12 12:38:43;;;;;;;;;;;;;;;24.41;49.47;100308.66;6168047;23;6987;-72
2023/10/12 12:41:18;;;;;;;;;;;;;;;24.49;48.83;100306.81;6176474;23;7225;-72
2023/10/12 12:43:48;;;;;;;;;;;;;;;24.61;49.22;100304.94;6113975;23;7258;-72
2023/10/12 12:46:14;;;;;;;;;;;;;;;24.70;49.07;100307.44;6080852;23;6778;-72
2023/10/12 12:48:45;;;;;;;;;;;;;;;24.77;48.80;100306.50;6074500;23;6839;-73
2023/10/12 12:51:15;;;;;;;;;;;;;;;24.82;48.92;100312.59;6088957;23;6854;-72
2023/10/12 12:53:47;;;;;;;;;;;;;;;24.86;48.35;100317.78;6135203;23;6864;-72
2023/10/12 12:56:17;;;;;;;;;;;;;;;24.82;48.56;100323.06;6136287;23;6767;-72
2023/10/12 12:58:49;;;;;;;;;;;;;;;24.74;48.09;100308.28;6088178;23;6954;-72
2023/10/12 13:01:23;;;;;;;;;;;;;;;24.60;48.52;100308.44;6135369;23;6899;-72
2023/10/12 13:03:56;;;;;;;;;;;;;;;24.45;48.68;100299.91;6112600;23;6994;-73
2023/10/12 13:06:23;;;;;;;;;;;;;;;24.31;48.38;100307.03;6134543;23;7193;-74
2023/10/12 13:08:49;;;;;;;;;;;;;;;24.16;48.48;100319.41;6137865;23;6790;-73
2023/10/12 13:11:20;;;;;;;;;;;;;;;24.05;49.35;100321.25;6112505;23;7121;-72
2023/10/12 13:13:50;;;;;;;;;;;;;;;23.92;49.30;100323.94;6087741;23;7097;-72
2023/10/12 13:16:16;;;;;;;;;;;;;;;23.82;48.81;100332.75;6135520;23;6985;-72
2023/10/12 13:18:46;;;;;;;;;;;;;;;23.66;49.55;100330.25;6137043;23;6997;-72
2023/10/12 13:21:16;;;;;;;;;;;;;;;23.50;49.57;100323.38;6064887;23;7249;-73
2023/10/12 13:23:43;;;;;;;;;;;;;;;23.35;50.10;100329.59;6112225;23;6850;-74
2023/10/12 13:26:12;;;;;;;;;;;;;;;23.25;50.46;100315.66;6089551;23;6786;-75
2023/10/12 13:28:41;;;;;;;;;;;;;;;23.20;50.24;100322.66;6111991;23;6771;-75
2023/10/12 13:31:10;;;;;;;;;;;;;;;23.21;50.49;100324.41;6135057;23;6912;-75
2023/10/12 13:33:38;;;;;;;;;;;;;;;23.24;50.71;100320.03;6089185;23;6970;-74
2023/10/12 13:36:05;;;;;;;;;;;;;;;23.26;50.99;100328.72;6089873;23;6787;-75
2023/10/12 13:38:34;;;;;;;;;;;;;;;23.31;51.22;100326.13;6087770;23;6934;-76
2023/10/12 13:41:01;;;;;;;;;;;;;;;23.38;51.13;100319.97;6135204;23;7136;-75
2023/10/12 13:43:30;;;;;;;;;;;;;;;23.36;50.97;100323.47;6136525;23;6779;-76
2023/10/12 13:45:57;;;;;;;;;;;;;;;23.26;50.53;100328.72;6134996;23;6962;-77
2023/10/12 13:48:27;;;;;;;;;;;;;;;23.17;50.92;100320.94;6093999;23;6770;-77
2023/10/12 13:51:36;;;;;;;;;;;;;;;23.11;51.42;100319.22;6117872;23;6779;-76
2023/10/12 13:53:53;;;;;;;;;;;;;;;23.09;51.99;100318.38;6115558;23;6950;-77
2023/10/12 13:56:23;;;;;;;;;;;;;;;23.11;51.73;100319.22;6087720;23;6961;-77
2023/10/12 13:58:52;;;;;;;;;;;;;;;23.12;51.56;100315.72;6117413;23;7242;-77
2023/10/12 14:01:20;;;;;;;;;;;;;;;23.19;51.75;100311.34;6079370;23;6963;-77
2023/10/12 14:03:53;;;;;;;;;;;;;;;23.24;51.25;100304.34;6088100;23;6958;-76
2023/10/12 14:06:20;;;;;;;;;;;;;;;23.28;51.54;100289.56;6088110;23;6978;-75
2023/10/12 14:08:46;;;;;;;;;;;;;;;23.36;51.46;100289.50;6088619;23;6783;-75
2023/10/12 14:11:19;;;;;;;;;;;;;;;23.43;51.63;100289.44;6064099;23;7043;-76
2023/10/12 14:13:47;;;;;;;;;;;;;;;23.51;51.10;100280.66;6088247;23;6915;-75
2023/10/12 14:16:14;;;;;;;;;;;;;;;23.52;51.17;100278.03;6087560;23;7304;-75
2023/10/12 14:18:41;;;;;;;;;;;;;;;23.53;50.54;100273.66;6088270;23;6945;-74
2023/10/12 14:21:15;;;;;;;;;;;;;;;23.51;50.80;100252.75;6088477;23;6974;-75
2023/10/12 14:23:47;;;;;;;;;;;;;;;23.49;50.62;100261.50;6065149;23;6976;-74
2023/10/12 14:26:22;;;;;;;;;;;;;;;23.43;50.92;100258.03;6087967;23;6839;-75
2023/10/12 14:28:54;;;;;;;;;;;;;;;23.40;51.01;100273.75;6088963;23;6972;-78
2023/10/12 14:31:22;;;;;;;;;;;;;;;23.35;51.56;100275.53;6065063;23;7179;-76
2023/10/12 14:33:49;;;;;;;;;;;;;;;23.32;51.35;100295.59;6064201;23;7044;-75
2023/10/12 14:36:14;;;;;;;;;;;;;;;23.26;51.27;100305.19;6064623;23;7028;-76
2023/10/12 14:38:44;;;;;;;;;;;;;;;23.19;51.18;100289.56;6087737;23;6766;-77
2023/10/12 14:41:10;;;;;;;;;;;;;;;23.08;51.44;100285.28;6088132;23;6775;-75
2023/10/12 14:43:36;;;;;;;;;;;;;;;23.03;51.62;100284.41;6087921;23;6931;-75
2023/10/12 14:46:04;;;;;;;;;;;;;;;23.02;51.84;100286.16;6088145;23;6949;-76
2023/10/12 14:48:30;;;;;;;;;;;;;;;23.00;52.01;100310.56;6089127;23;6771;-75
2023/10/12 14:51:12;;;;;;;;;;;;;;;22.94;52.02;100292.31;6089043;23;6834;-75
2023/10/12 14:53:39;;;;;;;;;;;;;;;22.90;51.91;100294.06;6112889;23;7533;-75
2023/10/12 14:56:06;;;;;;;;;;;;;;;22.80;51.88;100281.91;6089796;23;6770;-74
2023/10/12 14:58:33;;;;;;;;;;;;;;;22.73;52.23;100287.16;6088086;23;7125;-75
2023/10/12 15:00:59;;;;;;;;;;;;;;;22.69;52.39;100281.94;6087306;23;6962;-76
2023/10/12 15:03:26;;;;;;;;;;;;;;;22.65;52.39;100285.47;6088577;23;6771;-76
2023/10/12 15:05:55;;;;;;;;;;;;;;;22.60;52.23;100275.03;6088431;23;6775;-75
2023/10/12 15:08:25;;;;;;;;;;;;;;;22.54;52.35;100281.16;6087484;23;7694;-75